Time;durP1;ratioP1;P1;durP2;ratioP2;P2;SDS_P1;SDS_P2;PMS_P1;PMS_P2;Temp;Humidity;BMP_temperature;BMP_pressure;BME280_temperature;BME280_humidity;BME280_pressure;Samples;Min_cycle;Max_cycle;Signal;HPM_P1;HPM_P2
2023/11/30 00:00:38;;;;;;;9.57;4.13;;;;;;;8.17;47.52;100032.09;4633411;28;20045;-58
2023/11/30 00:03:03;;;;;;;8.02;4.82;;;;;;;8.17;47.02;100016.09;5095077;28;20105;-59
2023/11/30 00:05:28;;;;;;;9.32;4.60;;;;;;;8.18;46.75;100012.44;5095058;28;20116;-59
2023/11/30 00:07:54;;;;;;;17.27;4.55;;;;;;;8.21;47.04;100011.31;5076966;28;20067;-58
2023/11/30 00:10:19;;;;;;;6.63;4.28;;;;;;;8.22;47.39;100013.03;5094840;28;20028;-59
2023/11/30 00:12:44;;;;;;;9.07;4.78;;;;;;;8.24;47.04;100011.06;5077054;28;20442;-58
2023/11/30 00:15:10;;;;;;;10.20;4.93;;;;;;;8.27;47.17;100008.16;5092805;28;20115;-58
2023/11/30 00:17:35;;;;;;;9.07;4.70;;;;;;;8.28;47.40;100006.34;5065601;28;20029;-58
2023/11/30 00:20:00;;;;;;;9.43;5.22;;;;;;;8.31;47.52;100006.06;5074511;28;20149;-59
2023/11/30 00:22:26;;;;;;;7.43;4.97;;;;;;;8.32;47.81;100008.59;5056521;28;20020;-59
2023/11/30 00:24:51;;;;;;;7.53;4.13;;;;;;;8.35;47.09;100013.66;5056597;28;20032;-58
2023/11/30 00:27:16;;;;;;;9.40;4.50;;;;;;;8.38;47.48;100004.53;5073370;28;20043;-59
2023/11/30 00:29:42;;;;;;;9.55;5.22;;;;;;;8.39;47.39;99999.09;5039791;28;20504;-59
2023/11/30 00:32:07;;;;;;;10.10;5.45;;;;;;;8.41;47.51;99997.13;5056633;28;20407;-59
2023/11/30 00:34:32;;;;;;;9.88;4.55;;;;;;;8.42;47.21;100001.47;5079529;28;20492;-59
2023/11/30 00:36:57;;;;;;;11.52;5.60;;;;;;;8.41;47.60;99986.44;5076412;28;20032;-59
2023/11/30 00:39:23;;;;;;;8.65;4.72;;;;;;;8.44;48.08;99994.19;5094500;28;20032;-59
2023/11/30 00:41:48;;;;;;;9.70;5.30;;;;;;;8.42;46.99;99987.28;5076180;28;20028;-59
2023/11/30 00:44:13;;;;;;;7.68;4.95;;;;;;;8.46;47.79;99983.38;5094530;28;20032;-58
2023/11/30 00:46:39;;;;;;;12.25;5.45;;;;;;;8.47;47.93;99982.38;5076174;28;20082;-59
2023/11/30 00:49:04;;;;;;;7.70;4.35;;;;;;;8.46;47.01;99970.84;5094016;28;20032;-59
2023/11/30 00:51:30;;;;;;;7.78;4.30;;;;;;;8.48;47.54;99971.59;5094288;28;20111;-59
2023/11/30 00:57:17;;;;;;;10.73;5.35;;;;;;;8.47;47.65;99975.22;5094787;28;20514;-58
2023/11/30 00:59:42;;;;;;;11.02;5.55;;;;;;;8.49;47.49;99983.94;5076412;28;20060;-58
2023/11/30 01:02:07;;;;;;;9.18;4.72;;;;;;;8.47;47.51;99975.22;5094888;28;20392;-59
2023/11/30 01:04:33;;;;;;;9.40;4.78;;;;;;;8.50;47.24;99969.63;5075938;28;20552;-59
2023/11/30 01:06:58;;;;;;;9.63;5.10;;;;;;;8.52;47.25;99962.31;5094650;28;20107;-59
2023/11/30 01:09:23;;;;;;;8.30;4.45;;;;;;;8.54;47.50;99960.34;5094008;28;20048;-59
2023/11/30 01:11:49;;;;;;;7.25;4.95;;;;;;;8.57;47.36;99965.41;5093531;28;20055;-58
2023/11/30 01:14:14;;;;;;;8.30;5.28;;;;;;;8.58;48.27;99960.91;5093898;28;20028;-59
2023/11/30 01:16:40;;;;;;;8.25;5.22;;;;;;;8.63;47.73;99964.84;5075887;28;20020;-61
2023/11/30 01:19:05;;;;;;;10.82;5.18;;;;;;;8.64;47.87;99961.22;5093977;28;20032;-58
2023/11/30 01:21:30;;;;;;;8.95;5.18;;;;;;;8.67;47.17;99958.28;5093837;28;20024;-59
2023/11/30 01:23:56;;;;;;;7.65;4.97;;;;;;;8.66;47.64;99953.91;5093705;28;20111;-58
2023/11/30 01:26:22;;;;;;;8.55;5.10;;;;;;;8.64;47.39;99961.22;5075916;28;20044;-58
2023/11/30 01:28:47;;;;;;;9.68;5.43;;;;;;;8.69;47.73;99968.78;5075632;28;20028;-58
2023/11/30 01:31:13;;;;;;;10.95;5.65;;;;;;;8.69;47.69;99964.31;5093859;28;20446;-58
2023/11/30 01:33:38;;;;;;;10.55;5.18;;;;;;;8.72;47.89;99966.69;5093978;28;20028;-59
2023/11/30 01:36:05;;;;;;;11.75;5.90;;;;;;;8.71;47.85;99962.34;5059215;28;20074;-59
2023/11/30 01:38:32;;;;;;;12.27;6.72;;;;;;;8.73;48.04;99960.41;5058784;28;20036;-59
2023/11/30 01:40:57;;;;;;;11.70;5.63;;;;;;;8.75;48.36;99963.75;5093665;28;20054;-59
2023/11/30 01:43:22;;;;;;;9.15;4.90;;;;;;;8.76;48.18;99960.13;5058870;28;20499;-59
2023/11/30 01:45:49;;;;;;;9.30;5.35;;;;;;;8.78;47.71;99947.47;5093550;28;20507;-58
2023/11/30 01:48:15;;;;;;;9.57;5.18;;;;;;;8.78;47.74;99951.97;5093782;28;20056;-58
2023/11/30 01:50:42;;;;;;;9.80;6.20;;;;;;;8.79;48.01;99943.78;5075436;28;20523;-59
2023/11/30 01:53:07;;;;;;;12.23;6.13;;;;;;;8.81;47.74;99940.16;5075763;28;20043;-58
2023/11/30 01:55:33;;;;;;;10.93;5.72;;;;;;;8.86;48.19;99943.22;5075646;28;20036;-59
2023/11/30 01:57:58;;;;;;;10.27;5.38;;;;;;;8.86;47.42;99936.06;5075502;28;20056;-58
2023/11/30 02:00:24;;;;;;;10.77;5.88;;;;;;;8.90;48.16;99929.47;5074891;28;20048;-58
2023/11/30 02:02:49;;;;;;;13.32;5.82;;;;;;;8.91;48.25;99930.31;5076124;28;20111;-58
2023/11/30 02:05:15;;;;;;;10.75;6.43;;;;;;;8.93;47.81;99931.03;5093948;28;20032;-58
2023/11/30 02:07:41;;;;;;;9.15;5.95;;;;;;;8.94;47.77;99927.34;5075405;28;20048;-58
2023/11/30 02:10:06;;;;;;;11.63;6.22;;;;;;;8.98;48.33;99929.63;5093632;28;20040;-58
2023/11/30 02:12:32;;;;;;;8.48;5.45;;;;;;;8.99;48.25;99933.13;5058607;28;20040;-59
2023/11/30 02:14:59;;;;;;;12.75;6.78;;;;;;;9.00;48.31;99932.13;5092339;28;20454;-58
2023/11/30 02:17:24;;;;;;;9.43;6.00;;;;;;;9.01;47.70;99934.69;5093162;28;20044;-59
2023/11/30 02:19:49;;;;;;;9.73;6.57;;;;;;;9.03;48.14;99934.53;5075392;28;20063;-58
2023/11/30 02:22:15;;;;;;;9.38;5.78;;;;;;;9.03;48.40;99924.69;5093070;28;20028;-59
2023/11/30 02:24:40;;;;;;;9.85;5.78;;;;;;;9.06;48.28;99935.09;5075452;28;20028;-58
2023/11/30 02:27:06;;;;;;;9.60;5.15;;;;;;;9.06;48.29;99924.41;5075432;28;20020;-59
2023/11/30 02:29:32;;;;;;;9.38;6.15;;;;;;;9.08;48.24;99921.59;5093030;28;20071;-59
2023/11/30 02:31:57;;;;;;;11.57;6.75;;;;;;;9.06;48.26;99918.22;5075059;28;20020;-59
2023/11/30 02:34:23;;;;;;;12.20;6.00;;;;;;;9.08;48.73;99916.25;5075198;28;20051;-59
2023/11/30 02:36:48;;;;;;;11.25;5.63;;;;;;;9.11;48.10;99922.16;5093162;28;20427;-58
2023/11/30 02:39:13;;;;;;;11.25;6.18;;;;;;;9.12;48.26;99913.16;5092979;28;20043;-59
2023/11/30 02:41:39;;;;;;;12.95;6.93;;;;;;;9.15;48.37;99922.72;5074827;28;20028;-59
2023/11/30 02:44:04;;;;;;;11.48;6.65;;;;;;;9.13;48.31;99919.31;5074373;28;20478;-59
2023/11/30 02:46:29;;;;;;;10.80;6.40;;;;;;;9.13;48.04;99908.63;5092768;28;20013;-59
2023/11/30 02:48:55;;;;;;;13.20;6.63;;;;;;;9.14;48.26;99911.19;5093089;28;20051;-59
2023/11/30 02:51:21;;;;;;;11.00;5.47;;;;;;;9.18;47.78;99906.41;5075312;28;20384;-59
2023/11/30 02:53:46;;;;;;;12.52;5.78;;;;;;;9.17;48.14;99899.38;5075785;28;20074;-59
2023/11/30 02:56:11;;;;;;;10.48;6.60;;;;;;;9.18;48.08;99901.06;5075188;28;20463;-59
2023/11/30 02:58:36;;;;;;;11.38;5.75;;;;;;;9.16;48.39;99898.50;5092857;28;20491;-59
2023/11/30 03:01:03;;;;;;;10.85;6.32;;;;;;;9.18;48.44;99893.03;5093158;28;20047;-59
2023/11/30 03:03:28;;;;;;;11.98;6.45;;;;;;;9.20;48.75;99904.41;5093281;28;20016;-59
2023/11/30 03:05:54;;;;;;;13.88;6.10;;;;;;;9.20;48.72;99899.09;5075403;28;20031;-59
2023/11/30 03:08:20;;;;;;;9.68;5.88;;;;;;;9.19;48.37;99897.38;5093491;28;20472;-59
2023/11/30 03:10:45;;;;;;;10.40;6.85;;;;;;;9.21;48.16;99898.94;5093213;28;20078;-59
2023/11/30 03:13:10;;;;;;;10.50;6.03;;;;;;;9.18;48.83;99901.91;5077640;28;20020;-59
2023/11/30 03:15:43;;;;;;;15.35;6.80;;;;;;;9.20;48.50;99901.75;5062357;28;20393;-59
2023/11/30 03:18:08;;;;;;;13.30;6.72;;;;;;;9.20;48.23;99893.75;5078874;28;20020;-58
2023/11/30 03:20:35;;;;;;;12.93;7.28;;;;;;;9.21;48.41;99892.75;5097077;28;20028;-59
2023/11/30 03:23:01;;;;;;;11.80;6.28;;;;;;;9.22;48.59;99886.41;5078142;28;20032;-59
2023/11/30 03:25:26;;;;;;;11.07;6.20;;;;;;;9.22;48.07;99881.06;5095873;28;20028;-59
2023/11/30 03:27:51;;;;;;;9.55;5.90;;;;;;;9.22;48.60;99875.72;5095952;28;20029;-58
2023/11/30 03:30:17;;;;;;;11.98;6.80;;;;;;;9.19;48.26;99873.34;5076946;28;20025;-59
2023/11/30 03:32:42;;;;;;;12.15;6.72;;;;;;;9.20;49.16;99872.38;5095928;28;20519;-58
2023/11/30 03:35:08;;;;;;;10.93;6.18;;;;;;;9.17;48.40;99868.16;5078165;28;20036;-59
2023/11/30 03:37:33;;;;;;;11.18;6.32;;;;;;;9.19;48.29;99873.34;5095781;28;20032;-59
2023/11/30 03:39:58;;;;;;;12.93;7.00;;;;;;;9.19;48.35;99870.66;5077805;28;20471;-59
2023/11/30 03:42:24;;;;;;;11.10;5.95;;;;;;;9.19;48.56;99862.66;5077698;28;20032;-58
2023/11/30 03:44:49;;;;;;;13.43;6.35;;;;;;;9.16;48.72;99855.78;5077148;28;20115;-58
2023/11/30 03:47:14;;;;;;;9.18;5.88;;;;;;;9.17;48.20;99857.47;5094600;28;20063;-58
2023/11/30 03:49:39;;;;;;;14.27;6.30;;;;;;;9.17;48.32;99862.81;5095348;28;20031;-58
2023/11/30 03:52:05;;;;;;;10.43;6.05;;;;;;;9.19;49.15;99866.16;5095439;28;20039;-59
2023/11/30 03:54:30;;;;;;;11.40;6.43;;;;;;;9.19;48.49;99862.66;5060513;28;20066;-59
2023/11/30 03:56:56;;;;;;;10.73;5.88;;;;;;;9.22;48.39;99873.06;5095724;28;20032;-59
2023/11/30 03:59:21;;;;;;;10.68;6.25;;;;;;;9.23;48.90;99866.75;5076997;28;20032;-58
2023/11/30 04:01:47;;;;;;;13.35;6.90;;;;;;;9.25;48.63;99870.09;5077227;28;20040;-58
2023/11/30 04:04:12;;;;;;;9.88;5.40;;;;;;;9.27;48.55;99868.97;5095136;28;20035;-59
2023/11/30 04:06:37;;;;;;;12.18;6.90;;;;;;;9.28;48.42;99864.47;5077100;28;20056;-59
2023/11/30 04:09:03;;;;;;;12.02;6.75;;;;;;;9.29;48.59;99858.16;5060287;28;20060;-58
2023/11/30 04:11:29;;;;;;;11.95;6.35;;;;;;;9.30;48.50;99868.69;5060423;28;20067;-59
2023/11/30 04:14:06;;;;;;;11.20;6.28;;;;;;;9.30;48.34;99858.00;5094307;28;20028;-59
2023/11/30 04:16:31;;;;;;;15.48;7.78;;;;;;;9.33;48.52;99867.53;5076874;28;20028;-59
2023/11/30 04:18:57;;;;;;;18.48;6.82;;;;;;;9.30;48.49;99868.69;5076731;28;20036;-58
2023/11/30 04:21:22;;;;;;;13.90;6.43;;;;;;;9.33;48.95;99863.03;5094957;28;20483;-59
2023/11/30 04:23:48;;;;;;;14.27;7.00;;;;;;;9.34;48.25;99853.19;5076312;28;20038;-58
2023/11/30 04:26:13;;;;;;;11.52;6.13;;;;;;;9.35;48.61;99869.06;5077535;28;20483;-58
2023/11/30 04:28:38;;;;;;;9.43;5.10;;;;;;;9.37;48.13;99863.59;5078861;28;20495;-58
2023/11/30 04:31:04;;;;;;;12.60;5.53;;;;;;;9.38;48.73;99868.78;5077178;28;20036;-58
2023/11/30 04:33:29;;;;;;;18.85;5.82;;;;;;;9.38;48.08;99869.81;5076365;28;20380;-59
2023/11/30 04:35:55;;;;;;;13.55;6.78;;;;;;;9.38;48.50;99865.28;5095283;28;20036;-58
2023/11/30 04:38:21;;;;;;;12.60;7.00;;;;;;;9.38;48.07;99866.13;5076625;28;20046;-58
2023/11/30 04:40:46;;;;;;;9.85;5.90;;;;;;;9.39;48.34;99869.63;5077465;28;20039;-58
2023/11/30 04:43:12;;;;;;;13.20;6.60;;;;;;;9.38;48.45;99866.13;5076527;28;20039;-58
2023/11/30 04:45:37;;;;;;;10.98;6.07;;;;;;;9.39;48.06;99864.28;5076143;28;20444;-59
2023/11/30 04:48:03;;;;;;;12.48;6.43;;;;;;;9.40;49.03;99862.47;5076420;28;20070;-59
2023/11/30 04:50:28;;;;;;;13.70;6.00;;;;;;;9.36;48.49;99856.56;5094282;28;20024;-58
2023/11/30 04:52:54;;;;;;;8.52;5.43;;;;;;;9.37;48.26;99858.25;5076040;28;20079;-58
2023/11/30 04:55:21;;;;;;;10.00;5.95;;;;;;;9.36;48.24;99845.88;5076165;28;20054;-59
2023/11/30 04:57:47;;;;;;;10.95;6.00;;;;;;;9.38;48.59;99854.59;5076067;28;20086;-59
2023/11/30 05:00:13;;;;;;;10.27;5.40;;;;;;;9.38;48.95;99858.09;5075619;28;20067;-58
2023/11/30 05:02:52;;;;;;;9.43;5.55;;;;;;;9.30;48.46;99841.09;5076084;28;20037;-58
2023/11/30 05:05:18;;;;;;;9.05;5.30;;;;;;;9.36;48.38;99851.22;5076139;28;20039;-59
2023/11/30 05:07:44;;;;;;;8.10;5.50;;;;;;;9.34;48.31;99845.19;5076245;28;20139;-58
2023/11/30 05:10:09;;;;;;;15.52;5.80;;;;;;;9.32;48.54;99849.84;5076889;28;20507;-59
2023/11/30 05:12:34;;;;;;;11.68;6.35;;;;;;;9.32;48.56;99852.50;5076433;28;20030;-58
2023/11/30 05:15:00;;;;;;;13.35;6.57;;;;;;;9.28;48.30;99849.28;5076671;28;20038;-58
2023/11/30 05:17:25;;;;;;;9.93;5.20;;;;;;;9.25;47.70;99846.06;5075924;28;20032;-59
2023/11/30 05:19:50;;;;;;;9.25;5.43;;;;;;;9.24;48.37;99849.72;5075886;28;20119;-58
2023/11/30 05:22:16;;;;;;;8.07;5.28;;;;;;;9.22;48.56;99847.19;5058760;28;20059;-59
2023/11/30 05:24:41;;;;;;;10.55;5.28;;;;;;;9.21;48.90;99842.81;5093832;28;20054;-58
2023/11/30 05:27:07;;;;;;;12.00;5.47;;;;;;;9.22;48.20;99849.00;5074980;28;20032;-59
2023/11/30 05:29:32;;;;;;;12.75;5.65;;;;;;;9.21;48.55;99847.34;5075987;28;20040;-59
2023/11/30 05:31:58;;;;;;;12.93;6.20;;;;;;;9.19;48.47;99849.28;5076592;28;20032;-59
2023/11/30 05:34:23;;;;;;;7.25;4.35;;;;;;;9.19;48.50;99842.13;5093639;28;20106;-59
2023/11/30 05:36:49;;;;;;;10.60;5.88;;;;;;;9.16;48.48;99854.94;5092020;28;20078;-59
2023/11/30 05:39:15;;;;;;;11.80;5.35;;;;;;;9.15;48.59;99854.09;5075404;28;20036;-58
2023/11/30 05:41:41;;;;;;;12.02;5.00;;;;;;;9.12;48.81;99854.38;5093593;28;20024;-59
2023/11/30 05:44:06;;;;;;;9.57;4.95;;;;;;;9.16;48.41;99854.94;5075032;28;20472;-58
2023/11/30 05:46:31;;;;;;;13.70;6.93;;;;;;;9.15;48.08;99837.22;5058480;28;20507;-59
2023/11/30 05:48:57;;;;;;;11.10;6.45;;;;;;;9.17;49.10;99845.94;5075068;28;20388;-59
2023/11/30 05:51:22;;;;;;;14.43;5.40;;;;;;;9.20;48.41;99851.00;5091918;28;20036;-59
2023/11/30 05:53:47;;;;;;;12.70;6.15;;;;;;;9.21;48.61;99852.69;5093538;28;20036;-59
2023/11/30 05:56:13;;;;;;;13.27;6.15;;;;;;;9.26;48.14;99845.06;5058679;28;20557;-59
2023/11/30 05:58:38;;;;;;;11.23;6.30;;;;;;;9.26;48.64;99840.56;5092982;28;20044;-59
2023/11/30 06:01:04;;;;;;;9.68;5.28;;;;;;;9.28;49.07;99845.75;5074393;28;20044;-59
2023/11/30 06:03:29;;;;;;;10.63;5.97;;;;;;;9.34;48.50;99863.91;5092738;28;20402;-59
2023/11/30 06:05:55;;;;;;;14.60;6.05;;;;;;;9.34;49.07;99858.53;5092950;28;20467;-59
2023/11/30 06:08:20;;;;;;;11.93;5.95;;;;;;;9.35;48.82;99860.25;5092932;28;20404;-59
2023/11/30 06:10:45;;;;;;;11.85;5.70;;;;;;;9.40;48.58;99857.97;5074830;28;20404;-59
2023/11/30 06:13:12;;;;;;;9.82;5.90;;;;;;;9.41;48.08;99858.81;5092841;28;20032;-59
2023/11/30 06:15:38;;;;;;;9.38;6.00;;;;;;;9.38;48.12;99856.44;5092995;28;20036;-59
2023/11/30 06:18:03;;;;;;;8.30;5.85;;;;;;;9.41;48.64;99861.50;5092844;28;20044;-59
2023/11/30 06:20:30;;;;;;;11.05;6.63;;;;;;;9.41;48.70;99867.66;5092728;28;20032;-59
2023/11/30 06:22:56;;;;;;;13.68;6.60;;;;;;;9.38;49.15;99861.78;5075119;28;20047;-59
2023/11/30 06:25:21;;;;;;;13.93;6.32;;;;;;;9.40;48.52;99863.31;5074804;28;20142;-58
2023/11/30 06:27:47;;;;;;;12.60;5.20;;;;;;;9.41;48.41;99856.16;5074536;28;20127;-58
2023/11/30 06:30:12;;;;;;;18.98;6.30;;;;;;;9.39;48.71;99850.94;5074499;28;20047;-59
2023/11/30 06:32:37;;;;;;;8.18;5.22;;;;;;;9.38;48.60;99850.09;5092435;28;20503;-59
2023/11/30 06:35:03;;;;;;;10.18;6.07;;;;;;;9.39;48.59;99861.63;5092817;28;20039;-58
2023/11/30 06:37:29;;;;;;;11.90;6.40;;;;;;;9.39;48.69;99856.28;5092780;28;20460;-59
2023/11/30 06:39:54;;;;;;;10.10;5.90;;;;;;;9.38;48.58;99854.59;5074619;28;20118;-60
2023/11/30 06:42:19;;;;;;;16.35;6.10;;;;;;;9.38;48.39;99843.88;5074547;28;20486;-61
2023/11/30 06:44:45;;;;;;;14.25;6.57;;;;;;;9.36;48.49;99840.53;5092528;28;20506;-59
2023/11/30 06:47:11;;;;;;;15.27;7.15;;;;;;;9.35;48.90;99846.88;5093734;28;20032;-59
2023/11/30 06:49:36;;;;;;;15.27;7.35;;;;;;;9.35;48.76;99849.56;5079003;28;20043;-59
2023/11/30 06:52:02;;;;;;;23.88;7.25;;;;;;;9.33;49.07;99852.34;5097369;28;20086;-59
2023/11/30 06:54:27;;;;;;;18.20;6.32;;;;;;;9.35;48.41;99849.56;5097258;28;20499;-59
2023/11/30 06:56:53;;;;;;;13.77;6.68;;;;;;;9.35;48.40;99849.56;5078706;28;20549;-59
2023/11/30 06:59:18;;;;;;;9.77;5.78;;;;;;;9.36;49.15;99845.88;5077875;28;20483;-59
2023/11/30 07:01:43;;;;;;;14.52;7.63;;;;;;;9.36;49.01;99846.72;5078408;28;20503;-59
2023/11/30 07:04:09;;;;;;;12.15;6.88;;;;;;;9.36;49.00;99856.56;5096373;28;20556;-59
2023/11/30 07:06:34;;;;;;;12.05;7.15;;;;;;;9.36;48.49;99851.22;5061158;28;20032;-58
2023/11/30 07:08:59;;;;;;;10.82;6.20;;;;;;;9.35;48.50;99849.56;5096325;28;20040;-59
2023/11/30 07:11:25;;;;;;;12.98;6.80;;;;;;;9.33;48.48;99849.69;5061382;28;20093;-59
2023/11/30 07:13:50;;;;;;;12.80;6.10;;;;;;;9.36;48.85;99851.22;5096015;28;20035;-59
2023/11/30 07:16:16;;;;;;;14.02;6.25;;;;;;;9.37;48.63;99852.91;5077824;28;20036;-59
2023/11/30 07:18:41;;;;;;;13.18;5.95;;;;;;;9.37;49.08;99860.94;5061300;28;20038;-59
2023/11/30 07:21:13;;;;;;;15.50;6.47;;;;;;;9.38;48.69;99857.25;5096062;28;20495;-59
2023/11/30 07:23:39;;;;;;;10.95;5.88;;;;;;;9.36;48.77;99852.06;5078138;28;20036;-59
2023/11/30 07:26:11;;;;;;;10.48;6.18;;;;;;;9.38;48.56;99855.44;5096018;28;20034;-59
2023/11/30 07:28:36;;;;;;;11.40;6.13;;;;;;;9.38;48.45;99849.22;5095929;28;20036;-59
2023/11/30 07:31:02;;;;;;;13.55;6.70;;;;;;;9.38;48.91;99843.06;5061007;28;20039;-59
2023/11/30 07:33:27;;;;;;;11.43;6.63;;;;;;;9.37;49.32;99842.22;5077703;28;20090;-59
2023/11/30 07:35:52;;;;;;;11.13;6.15;;;;;;;9.37;48.48;99836.88;5096087;28;20028;-59
2023/11/30 07:38:18;;;;;;;11.63;6.30;;;;;;;9.30;48.35;99831.25;5077921;28;20032;-59
2023/11/30 07:40:43;;;;;;;10.90;6.00;;;;;;;9.30;49.08;99827.75;5095881;28;20058;-59
2023/11/30 07:43:08;;;;;;;13.73;6.28;;;;;;;9.34;48.89;99831.81;5095724;28;20120;-59
2023/11/30 07:45:34;;;;;;;15.38;6.85;;;;;;;9.32;48.94;99823.94;5060605;28;20051;-59
2023/11/30 07:48:03;;;;;;;12.15;6.28;;;;;;;9.35;48.79;99828.19;5095542;28;20111;-59
2023/11/30 07:50:29;;;;;;;9.32;6.15;;;;;;;9.35;48.79;99828.19;5095624;28;20507;-59
2023/11/30 07:52:54;;;;;;;9.98;6.53;;;;;;;9.35;48.60;99834.34;5095659;28;20031;-59
2023/11/30 07:55:20;;;;;;;9.70;6.07;;;;;;;9.33;48.51;99830.13;5095612;28;20085;-59
2023/11/30 07:57:45;;;;;;;10.65;5.93;;;;;;;9.36;48.53;99832.50;5060442;28;20399;-59
2023/11/30 08:00:12;;;;;;;12.40;6.35;;;;;;;9.37;48.80;99836.88;5059899;28;20071;-59
2023/11/30 08:02:38;;;;;;;13.43;6.72;;;;;;;9.40;48.43;99835.75;5076652;28;20073;-59
2023/11/30 08:05:05;;;;;;;10.50;6.13;;;;;;;9.38;48.71;99834.03;5077212;28;20037;-59
2023/11/30 08:07:31;;;;;;;11.73;6.20;;;;;;;9.38;48.24;99837.72;5095033;28;20402;-59
2023/11/30 08:09:56;;;;;;;14.27;7.82;;;;;;;9.39;48.86;99842.91;5077243;28;20036;-59
2023/11/30 08:12:21;;;;;;;11.65;6.63;;;;;;;9.40;48.16;99844.59;5095236;28;20519;-59
2023/11/30 08:14:47;;;;;;;8.30;5.82;;;;;;;9.47;48.42;99853.72;5060171;28;20495;-59
2023/11/30 08:17:12;;;;;;;9.25;6.32;;;;;;;9.45;48.24;99847.69;5076924;28;20415;-59
2023/11/30 08:19:38;;;;;;;12.85;6.72;;;;;;;9.52;48.53;99855.97;5060143;28;20454;-59
2023/11/30 08:22:04;;;;;;;9.75;6.20;;;;;;;9.51;48.75;99856.94;5094525;28;20437;-59
2023/11/30 08:24:29;;;;;;;14.23;6.85;;;;;;;9.52;48.60;99854.09;5059899;28;20032;-59
2023/11/30 08:26:55;;;;;;;12.07;6.22;;;;;;;9.53;48.40;99842.44;5094778;28;20067;-59
2023/11/30 08:29:21;;;;;;;10.90;6.50;;;;;;;9.58;48.10;99845.50;5076647;28;20032;-59
2023/11/30 08:31:46;;;;;;;11.38;5.78;;;;;;;9.63;48.45;99853.09;5094607;28;20407;-59
2023/11/30 08:34:12;;;;;;;9.57;5.68;;;;;;;9.67;48.49;99849.97;5076557;28;20032;-59
2023/11/30 08:36:37;;;;;;;11.63;6.45;;;;;;;9.70;48.28;99859.53;5094710;28;20036;-59
2023/11/30 08:39:03;;;;;;;10.50;6.22;;;;;;;9.70;48.04;99859.53;5094491;28;20499;-59
2023/11/30 08:41:30;;;;;;;12.35;5.50;;;;;;;9.74;48.39;99861.75;5059737;28;20564;-59
2023/11/30 08:43:55;;;;;;;13.07;7.15;;;;;;;9.76;48.69;99857.13;5076261;28;20056;-59
2023/11/30 08:46:20;;;;;;;14.57;6.82;;;;;;;9.78;48.78;99854.28;5094271;28;20112;-59
2023/11/30 08:48:46;;;;;;;11.25;6.45;;;;;;;9.79;48.43;99855.97;5076199;28;20032;-59
2023/11/30 08:51:11;;;;;;;11.13;6.15;;;;;;;9.79;48.17;99854.16;5094368;28;20067;-59
2023/11/30 08:53:36;;;;;;;11.57;6.45;;;;;;;9.82;48.26;99853.88;5059264;28;20178;-59
2023/11/30 08:56:02;;;;;;;12.48;6.20;;;;;;;9.85;48.22;99847.38;5076122;28;20093;-59
2023/11/30 08:58:27;;;;;;;12.05;6.18;;;;;;;9.89;48.52;99844.25;5076084;28;20036;-59
2023/11/30 09:00:53;;;;;;;11.10;6.45;;;;;;;9.89;48.46;99848.75;5075919;28;20558;-60
2023/11/30 09:03:18;;;;;;;12.25;6.93;;;;;;;9.97;47.98;99856.03;5075982;28;20403;-59
2023/11/30 09:05:43;;;;;;;12.23;6.53;;;;;;;10.00;48.72;99850.38;5094021;28;20062;-59
2023/11/30 09:08:09;;;;;;;10.23;6.28;;;;;;;10.02;48.41;99853.75;5076223;28;20040;-59
2023/11/30 09:10:34;;;;;;;9.55;5.80;;;;;;;10.04;48.76;99851.75;5075788;28;20447;-59
2023/11/30 09:13:02;;;;;;;11.80;6.15;;;;;;;10.03;47.80;99853.59;5094151;28;20514;-59
2023/11/30 09:15:29;;;;;;;11.02;5.68;;;;;;;10.05;48.18;99854.28;5093959;28;20054;-59
2023/11/30 09:17:56;;;;;;;12.30;6.80;;;;;;;10.05;48.48;99848.09;5075834;28;20040;-59
2023/11/30 09:20:22;;;;;;;13.15;6.53;;;;;;;10.08;47.89;99863.88;5093555;28;20056;-59
2023/11/30 09:22:48;;;;;;;11.77;6.28;;;;;;;10.09;48.01;99857.50;5093833;28;20126;-60
2023/11/30 09:25:13;;;;;;;11.82;6.43;;;;;;;10.07;48.07;99846.13;5093569;28;20495;-59
2023/11/30 09:27:38;;;;;;;10.00;6.05;;;;;;;10.09;48.28;99854.81;5093438;28;20035;-59
2023/11/30 09:30:04;;;;;;;14.20;6.10;;;;;;;10.11;48.26;99856.34;5075454;28;20055;-59
2023/11/30 09:32:30;;;;;;;13.15;6.80;;;;;;;10.10;48.83;99845.81;5093821;28;20020;-60
2023/11/30 09:34:55;;;;;;;10.93;6.45;;;;;;;10.12;48.31;99855.38;5075301;28;20467;-61
2023/11/30 09:37:20;;;;;;;10.00;5.85;;;;;;;10.13;48.33;99866.97;5075427;28;20470;-59
2023/11/30 09:39:46;;;;;;;15.65;6.65;;;;;;;10.11;48.11;99866.22;5093662;28;20039;-59
2023/11/30 09:42:16;;;;;;;11.20;6.40;;;;;;;10.13;48.11;99873.16;5074973;28;20048;-59
2023/11/30 09:44:42;;;;;;;12.63;7.05;;;;;;;10.13;48.05;99870.47;5093575;28;20471;-59
2023/11/30 09:47:08;;;;;;;10.43;6.60;;;;;;;10.12;47.90;99870.59;5075301;28;20035;-63
2023/11/30 09:49:34;;;;;;;16.98;7.82;;;;;;;10.15;48.02;99871.16;5075126;28;20020;-63
2023/11/30 09:51:59;;;;;;;18.67;7.78;;;;;;;10.18;47.69;99873.53;5093212;28;20024;-63
2023/11/30 09:54:24;;;;;;;12.32;7.30;;;;;;;10.25;48.01;99866.59;5058472;28;20028;-63
2023/11/30 09:56:50;;;;;;;12.18;7.05;;;;;;;10.32;47.96;99874.88;5093551;28;20020;-63
2023/11/30 09:59:15;;;;;;;13.23;7.22;;;;;;;10.35;47.64;99871.88;5075118;28;20060;-63
2023/11/30 10:01:42;;;;;;;12.82;7.10;;;;;;;10.38;47.62;99876.94;5058951;28;20476;-63
2023/11/30 10:04:17;;;;;;;14.38;6.45;;;;;;;10.36;48.14;99873.56;5075211;28;20031;-63
2023/11/30 10:06:43;;;;;;;14.60;7.32;;;;;;;10.38;48.00;99872.44;5092927;28;20115;-63
2023/11/30 10:09:12;;;;;;;10.32;6.72;;;;;;;10.37;47.95;99872.56;5075129;28;20060;-63
2023/11/30 10:11:39;;;;;;;13.27;7.60;;;;;;;10.34;47.59;99878.22;5092961;28;20502;-63
2023/11/30 10:14:04;;;;;;;17.50;7.40;;;;;;;10.36;47.63;99878.91;5074922;28;20038;-63
2023/11/30 10:16:29;;;;;;;21.23;8.07;;;;;;;10.36;47.93;99871.72;5092936;28;20119;-63
2023/11/30 10:18:55;;;;;;;13.98;8.38;;;;;;;10.41;48.17;99872.09;5058140;28;20072;-63
2023/11/30 10:21:21;;;;;;;17.88;9.13;;;;;;;10.42;47.70;99872.94;5074192;28;20400;-63
2023/11/30 10:23:47;;;;;;;13.55;7.28;;;;;;;10.43;47.66;99871.97;5075107;28;20036;-62
2023/11/30 10:26:15;;;;;;;15.65;8.02;;;;;;;10.44;47.83;99870.97;5074618;28;20039;-63
2023/11/30 10:28:41;;;;;;;17.13;7.65;;;;;;;10.43;47.76;99866.63;5074842;28;20047;-63
2023/11/30 10:31:08;;;;;;;13.10;6.95;;;;;;;10.46;48.33;99872.50;5074797;28;20032;-63
2023/11/30 10:33:37;;;;;;;13.82;7.38;;;;;;;10.51;47.48;99861.34;5092595;28;20036;-63
2023/11/30 10:36:05;;;;;;;13.93;7.50;;;;;;;10.58;48.20;99866.94;5075134;28;20078;-64
2023/11/30 10:38:33;;;;;;;9.95;6.30;;;;;;;10.69;47.73;99864.84;5075172;28;20032;-63
2023/11/30 10:41:10;;;;;;;15.15;8.27;;;;;;;10.79;48.00;99865.63;5074763;28;20028;-63
2023/11/30 10:43:40;;;;;;;13.32;7.80;;;;;;;10.93;48.17;99859.72;5074753;28;20036;-63
2023/11/30 10:46:07;;;;;;;14.73;6.85;;;;;;;11.04;47.43;99862.16;5075132;28;20035;-63
2023/11/30 10:48:34;;;;;;;15.48;7.53;;;;;;;11.10;47.72;99858.84;5057920;28;20047;-63
2023/11/30 10:51:00;;;;;;;15.82;6.95;;;;;;;11.23;46.89;99857.56;5074685;28;20065;-63
2023/11/30 10:53:28;;;;;;;12.20;7.05;;;;;;;11.32;47.14;99852.13;5074646;28;20054;-63
2023/11/30 10:55:54;;;;;;;14.88;7.70;;;;;;;11.39;47.74;99857.69;5092682;28;20036;-59
2023/11/30 10:58:23;;;;;;;16.15;8.07;;;;;;;11.47;47.97;99855.06;5074520;28;20420;-59
2023/11/30 11:00:56;;;;;;;13.90;7.72;;;;;;;11.64;47.57;99859.53;5092478;28;20119;-60
2023/11/30 11:03:21;;;;;;;14.30;7.93;;;;;;;11.72;47.33;99856.06;5074581;28;20522;-58
2023/11/30 11:05:50;;;;;;;14.50;7.20;;;;;;;11.87;47.77;99866.00;5092304;28;20036;-59
2023/11/30 11:08:15;;;;;;;16.98;7.57;;;;;;;12.02;46.44;99856.38;5057795;28;20059;-59
2023/11/30 11:10:45;;;;;;;14.63;8.77;;;;;;;12.21;47.04;99866.81;5092512;28;20036;-59
2023/11/30 11:13:17;;;;;;;12.90;6.97;;;;;;;12.34;47.12;99865.53;5074385;28;20078;-59
2023/11/30 11:15:42;;;;;;;14.40;6.82;;;;;;;12.48;47.34;99865.69;5092365;28;20040;-59
2023/11/30 11:18:11;;;;;;;14.93;7.47;;;;;;;12.60;47.30;99871.59;5092488;28;20034;-59
2023/11/30 11:20:36;;;;;;;12.63;7.55;;;;;;;12.81;46.69;99863.91;5074351;28;20123;-59
2023/11/30 11:23:08;;;;;;;18.45;7.97;;;;;;;13.11;46.76;99863.28;5074656;28;20028;-59
2023/11/30 11:25:46;;;;;;;14.63;7.45;;;;;;;13.37;45.47;99850.44;5058307;28;20040;-59
2023/11/30 11:28:11;;;;;;;14.13;7.82;;;;;;;13.59;46.20;99850.75;5093429;28;20036;-59
2023/11/30 11:30:44;;;;;;;14.10;7.65;;;;;;;13.76;45.69;99844.31;5075139;28;20047;-59